Time;durP1;ratioP1;P1;durP2;ratioP2;P2;SDS_P1;SDS_P2;PMS_P1;PMS_P2;Temp;Humidity;BMP_temperature;BMP_pressure;BME280_temperature;BME280_humidity;BME280_pressure;Samples;Min_cycle;Max_cycle;Signal;HPM_P1;HPM_P2
2021/08/17 00:01:52;;;;;;;32.33;19.70;;;14.20;76.20;;;;;;5091381;28;20505;-88
2021/08/17 00:04:19;;;;;;;34.67;18.33;;;14.20;76.20;;;;;;5089201;28;20082;-87
2021/08/17 00:06:47;;;;;;;35.53;20.17;;;14.10;76.30;;;;;;5090596;28;20043;-88
2021/08/17 00:09:15;;;;;;;37.33;21.52;;;14.10;76.30;;;;;;5090793;28;20081;-89
2021/08/17 00:11:42;;;;;;;36.13;20.75;;;14.20;76.30;;;;;;5089698;28;20048;-88
2021/08/17 00:14:09;;;;;;;29.35;19.40;;;14.10;76.30;;;;;;5092591;28;20501;-89
2021/08/17 00:16:36;;;;;;;36.78;20.90;;;14.10;76.30;;;;;;5090333;28;20097;-88
2021/08/17 00:19:03;;;;;;;38.55;21.42;;;14.10;76.40;;;;;;5090347;28;20690;-89
2021/08/17 00:21:30;;;;;;;30.67;18.92;;;14.10;76.40;;;;;;5090301;28;20044;-88
2021/08/17 00:23:57;;;;;;;35.47;19.73;;;14.00;76.50;;;;;;5089096;28;20461;-89
2021/08/17 00:26:24;;;;;;;34.90;19.58;;;14.10;76.50;;;;;;5091358;28;20052;-87
2021/08/17 00:28:51;;;;;;;39.42;21.08;;;14.00;76.50;;;;;;5091067;28;20094;-88
2021/08/17 00:31:18;;;;;;;34.85;20.10;;;14.00;76.60;;;;;;5090297;28;20047;-88
2021/08/17 00:33:45;;;;;;;35.28;19.98;;;14.00;76.70;;;;;;5090033;28;20485;-89
2021/08/17 00:36:11;;;;;;;36.35;20.10;;;14.00;76.80;;;;;;5090253;28;20044;-89
2021/08/17 00:38:40;;;;;;;40.30;21.55;;;14.00;76.80;;;;;;5090229;28;20044;-88
2021/08/17 00:41:09;;;;;;;32.65;20.35;;;13.90;76.80;;;;;;5091940;28;20067;-90
2021/08/17 00:43:37;;;;;;;43.83;21.90;;;13.90;76.90;;;;;;5088704;28;20094;-91
2021/08/17 00:46:06;;;;;;;36.15;18.95;;;13.90;77.00;;;;;;5090055;28;20502;-87
2021/08/17 00:48:38;;;;;;;35.35;19.23;;;13.90;77.10;;;;;;5090194;28;20090;-89
2021/08/17 00:51:08;;;;;;;39.55;20.70;;;13.90;77.10;;;;;;5090308;28;20040;-89
2021/08/17 00:53:36;;;;;;;39.72;20.95;;;13.80;77.20;;;;;;5090399;28;20044;-89
2021/08/17 00:56:05;;;;;;;36.88;20.88;;;13.80;77.40;;;;;;5089901;28;20044;-87
2021/08/17 00:58:32;;;;;;;40.65;20.35;;;13.80;77.50;;;;;;5089974;28;20066;-89
2021/08/17 01:00:59;;;;;;;33.67;18.77;;;13.70;77.60;;;;;;5089861;28;20113;-89
2021/08/17 01:03:27;;;;;;;33.42;18.92;;;13.70;77.70;;;;;;5088813;28;20052;-89
2021/08/17 01:05:57;;;;;;;33.13;19.60;;;13.70;77.80;;;;;;5090074;28;20045;-90
2021/08/17 01:08:26;;;;;;;39.03;19.65;;;13.60;77.80;;;;;;5091697;28;20044;-87
2021/08/17 01:10:53;;;;;;;32.80;18.88;;;13.70;77.80;;;;;;5088232;28;20052;-88
2021/08/17 01:13:26;;;;;;;37.15;19.35;;;13.70;77.90;;;;;;5089627;28;20614;-87
2021/08/17 01:15:54;;;;;;;32.60;19.08;;;13.70;77.90;;;;;;5089655;28;20403;-89
2021/08/17 01:18:21;;;;;;;42.53;18.77;;;13.60;77.90;;;;;;5090009;28;20044;-88
2021/08/17 01:20:51;;;;;;;36.42;19.52;;;13.60;77.90;;;;;;5088958;28;20077;-88
2021/08/17 01:23:19;;;;;;;32.80;18.65;;;13.60;77.90;;;;;;5091467;28;20105;-87
2021/08/17 01:25:46;;;;;;;29.30;17.05;;;13.60;77.90;;;;;;5090688;28;20048;-89
2021/08/17 01:28:14;;;;;;;32.70;16.77;;;13.60;78.00;;;;;;5093595;28;20040;-87
2021/08/17 01:30:41;;;;;;;33.72;17.73;;;13.70;78.00;;;;;;5093459;28;20460;-88
2021/08/17 01:33:08;;;;;;;30.70;17.33;;;13.60;78.00;;;;;;5093660;28;20044;-87
2021/08/17 01:35:35;;;;;;;32.95;18.13;;;13.60;78.00;;;;;;5093927;28;20097;-90
2021/08/17 01:38:05;;;;;;;34.70;16.50;;;13.60;78.10;;;;;;5092947;28;20051;-90
2021/08/17 01:40:32;;;;;;;29.38;16.42;;;13.60;78.10;;;;;;5093141;28;20097;-89
2021/08/17 01:42:59;;;;;;;26.52;16.88;;;13.60;78.10;;;;;;5091895;28;20460;-90
2021/08/17 01:45:26;;;;;;;31.23;17.23;;;13.60;78.20;;;;;;5093246;28;20517;-89
2021/08/17 01:47:53;;;;;;;34.05;16.48;;;13.60;78.20;;;;;;5093278;28;20098;-87
2021/08/17 01:50:22;;;;;;;32.97;17.08;;;13.60;78.20;;;;;;5095140;28;20106;-88
2021/08/17 01:52:49;;;;;;;29.10;16.25;;;13.60;78.20;;;;;;5090698;28;20109;-88
2021/08/17 01:55:17;;;;;;;34.90;16.85;;;13.60;78.20;;;;;;5093085;28;20040;-88
2021/08/17 01:57:43;;;;;;;31.35;15.73;;;13.50;78.20;;;;;;5093022;28;20101;-89
2021/08/17 02:00:12;;;;;;;33.90;17.67;;;13.50;78.20;;;;;;5090593;28;20063;-88
2021/08/17 02:02:39;;;;;;;32.90;17.27;;;13.50;78.20;;;;;;5092782;28;20101;-89
2021/08/17 02:05:08;;;;;;;31.38;16.70;;;13.50;78.30;;;;;;5094994;28;20446;-91
2021/08/17 02:07:35;;;;;;;41.40;16.27;;;13.50;78.30;;;;;;5092590;28;20126;-89
2021/08/17 02:10:04;;;;;;;27.75;15.65;;;13.50;78.40;;;;;;5092654;28;20044;-90
2021/08/17 02:12:31;;;;;;;30.65;15.77;;;13.50;78.40;;;;;;5092591;28;20100;-89
2021/08/17 02:14:58;;;;;;;31.60;15.38;;;13.50;78.50;;;;;;5125554;27;20105;-89
2021/08/17 02:17:25;;;;;;;29.48;15.88;;;13.40;78.50;;;;;;5093694;28;20056;-89
2021/08/17 02:19:52;;;;;;;31.35;15.50;;;13.40;78.60;;;;;;5093399;28;20501;-89
2021/08/17 02:22:19;;;;;;;30.73;16.08;;;13.40;78.60;;;;;;5090838;28;20101;-89
2021/08/17 02:24:46;;;;;;;30.92;15.73;;;13.40;78.70;;;;;;5092707;28;20052;-90
2021/08/17 02:27:13;;;;;;;29.92;15.43;;;13.40;78.80;;;;;;5092747;28;20113;-88
2021/08/17 02:29:39;;;;;;;30.67;15.55;;;13.40;78.90;;;;;;5092448;28;20044;-89
2021/08/17 02:32:06;;;;;;;28.48;14.25;;;13.30;78.90;;;;;;5094503;28;20056;-88
2021/08/17 02:34:33;;;;;;;27.92;15.85;;;13.30;79.10;;;;;;5091657;28;20127;-89
2021/08/17 02:37:00;;;;;;;32.38;15.48;;;13.30;79.10;;;;;;5091653;28;20052;-88
2021/08/17 02:39:27;;;;;;;27.60;14.45;;;13.30;79.20;;;;;;5090808;28;20101;-88
2021/08/17 02:41:54;;;;;;;28.73;14.35;;;13.20;79.30;;;;;;5091997;28;20464;-89
2021/08/17 02:44:21;;;;;;;24.02;13.40;;;13.30;79.30;;;;;;5094544;28;20044;-90
2021/08/17 02:46:48;;;;;;;25.50;14.30;;;13.20;79.30;;;;;;5092695;28;20093;-90
2021/08/17 02:49:15;;;;;;;26.02;13.10;;;13.30;79.30;;;;;;5091946;28;20086;-90
2021/08/17 02:51:41;;;;;;;23.42;13.15;;;13.30;79.20;;;;;;5091588;28;20467;-90
2021/08/17 02:54:08;;;;;;;22.25;13.93;;;13.30;79.20;;;;;;5091892;28;20659;-90
2021/08/17 02:56:35;;;;;;;23.25;13.90;;;13.30;79.10;;;;;;5092164;28;20056;-89
2021/08/17 02:59:02;;;;;;;26.63;13.98;;;13.30;79.10;;;;;;5091846;28;20056;-90
2021/08/17 03:01:29;;;;;;;33.45;14.07;;;13.30;79.00;;;;;;5090198;28;20097;-90
2021/08/17 03:03:56;;;;;;;23.75;12.93;;;13.20;79.00;;;;;;5119563;27;20463;-89
2021/08/17 03:06:23;;;;;;;21.63;12.18;;;13.20;79.00;;;;;;5091345;28;20052;-89
2021/08/17 03:08:50;;;;;;;26.60;13.40;;;13.20;79.00;;;;;;5075892;28;20040;-89
2021/08/17 03:11:17;;;;;;;28.65;13.30;;;13.20;79.00;;;;;;5088117;28;20052;-90
2021/08/17 03:13:44;;;;;;;20.23;12.45;;;13.20;78.90;;;;;;5091483;28;20055;-88
2021/08/17 03:16:11;;;;;;;22.52;13.23;;;13.20;78.90;;;;;;5091343;28;20051;-88
2021/08/17 03:18:38;;;;;;;20.98;12.43;;;13.20;78.90;;;;;;5090051;28;20097;-89
2021/08/17 03:21:05;;;;;;;27.95;12.85;;;13.10;78.90;;;;;;5090992;28;20125;-89
2021/08/17 03:23:32;;;;;;;25.17;14.00;;;13.20;78.90;;;;;;5092049;28;20048;-89
2021/08/17 03:25:59;;;;;;;22.30;12.05;;;13.10;78.90;;;;;;5092844;28;20044;-88
2021/08/17 03:28:26;;;;;;;29.17;13.18;;;13.10;78.90;;;;;;5091441;28;20109;-88
2021/08/17 03:30:53;;;;;;;23.27;12.55;;;13.10;78.90;;;;;;5091315;28;20097;-88
2021/08/17 03:33:20;;;;;;;24.00;12.60;;;13.10;78.90;;;;;;5090161;28;20540;-87
2021/08/17 03:35:48;;;;;;;26.67;14.02;;;13.00;78.90;;;;;;5090766;28;20070;-88
2021/08/17 03:38:15;;;;;;;22.92;12.68;;;13.00;78.90;;;;;;5093236;28;20093;-90
2021/08/17 03:40:42;;;;;;;22.75;12.85;;;13.00;78.90;;;;;;5089609;28;20471;-90
2021/08/17 03:43:09;;;;;;;21.15;12.27;;;13.00;78.90;;;;;;5091210;28;20395;-91
2021/08/17 03:45:36;;;;;;;21.50;10.75;;;13.00;78.90;;;;;;5089180;28;20055;-90
2021/08/17 03:48:04;;;;;;;25.08;13.30;;;12.90;78.90;;;;;;5091195;28;20044;-91
2021/08/17 03:50:31;;;;;;;24.50;13.15;;;13.00;78.90;;;;;;5091679;28;20101;-90
2021/08/17 03:52:58;;;;;;;22.80;12.50;;;12.90;78.80;;;;;;5092403;28;20110;-90
2021/08/17 03:55:25;;;;;;;23.88;12.27;;;13.00;78.80;;;;;;5091015;28;20044;-90
2021/08/17 03:57:52;;;;;;;22.20;11.50;;;12.90;78.80;;;;;;5089715;28;20078;-89
2021/08/17 04:00:25;;;;;;;23.73;11.75;;;12.90;78.70;;;;;;5091019;28;20048;-89
2021/08/17 04:02:53;;;;;;;24.00;11.73;;;12.90;78.70;;;;;;5075065;28;20048;-90
2021/08/17 04:05:21;;;;;;;20.67;12.00;;;12.90;78.60;;;;;;5087680;28;20040;-90
2021/08/17 04:07:48;;;;;;;21.13;10.75;;;12.90;78.60;;;;;;5091370;28;20051;-91
2021/08/17 04:10:15;;;;;;;26.15;12.00;;;12.90;78.60;;;;;;5089378;28;20048;-89
2021/08/17 04:12:43;;;;;;;21.05;10.85;;;12.90;78.50;;;;;;5090544;28;20048;-89
2021/08/17 04:15:10;;;;;;;19.92;11.05;;;12.90;78.50;;;;;;5090731;28;20101;-89
2021/08/17 04:17:37;;;;;;;17.10;10.45;;;12.80;78.50;;;;;;5090996;28;20514;-88
2021/08/17 04:20:06;;;;;;;19.20;11.50;;;12.80;78.40;;;;;;5090846;28;20468;-89
2021/08/17 04:22:33;;;;;;;18.55;11.07;;;12.80;78.40;;;;;;5090389;28;20501;-90
2021/08/17 04:25:00;;;;;;;26.05;11.30;;;12.80;78.40;;;;;;5090446;28;20044;-89
2021/08/17 04:27:28;;;;;;;27.15;12.05;;;12.80;78.40;;;;;;5090304;28;20472;-89
2021/08/17 04:29:55;;;;;;;23.67;10.65;;;12.80;78.40;;;;;;5090722;28;20040;-89
2021/08/17 04:32:22;;;;;;;20.17;10.95;;;12.80;78.30;;;;;;5092054;28;20052;-88
2021/08/17 04:34:48;;;;;;;26.33;11.55;;;12.80;78.30;;;;;;5088160;28;20040;-88
2021/08/17 04:37:15;;;;;;;23.17;11.55;;;12.70;78.30;;;;;;5088840;28;20502;-89
2021/08/17 04:39:42;;;;;;;19.48;10.93;;;12.70;78.20;;;;;;5090330;28;20743;-90
2021/08/17 04:42:09;;;;;;;24.92;11.63;;;12.70;78.30;;;;;;5090283;28;20098;-89
2021/08/17 04:44:37;;;;;;;24.40;12.70;;;12.60;78.30;;;;;;5089550;28;20044;-88
2021/08/17 04:47:03;;;;;;;20.17;11.40;;;12.70;78.30;;;;;;5089955;28;20055;-87
2021/08/17 04:49:31;;;;;;;21.17;10.93;;;12.60;78.30;;;;;;5090294;28;20062;-89
2021/08/17 04:51:58;;;;;;;24.30;11.05;;;12.60;78.30;;;;;;5090236;28;20048;-89
2021/08/17 04:54:25;;;;;;;21.38;11.00;;;12.60;78.30;;;;;;5090117;28;20051;-88
2021/08/17 04:56:52;;;;;;;22.60;10.93;;;12.60;78.40;;;;;;5090579;28;20105;-88
2021/08/17 04:59:19;;;;;;;18.98;11.05;;;12.60;78.40;;;;;;5091957;28;20514;-88
2021/08/17 05:01:48;;;;;;;21.30;12.57;;;12.50;78.40;;;;;;5093638;28;20048;-89
2021/08/17 05:04:15;;;;;;;24.40;11.18;;;12.50;78.30;;;;;;5094068;28;20094;-88
2021/08/17 05:06:42;;;;;;;20.58;12.40;;;12.50;78.40;;;;;;5093904;28;20105;-86
2021/08/17 05:09:09;;;;;;;24.52;12.43;;;12.50;78.50;;;;;;5094151;28;20048;-88
2021/08/17 05:11:36;;;;;;;24.67;12.00;;;12.40;78.50;;;;;;5094004;28;20048;-88
2021/08/17 05:14:02;;;;;;;24.55;11.60;;;12.40;78.60;;;;;;5093899;28;20056;-90
2021/08/17 05:16:29;;;;;;;19.80;10.75;;;12.40;78.60;;;;;;5091971;28;20056;-90
2021/08/17 05:18:56;;;;;;;22.50;11.07;;;12.40;78.60;;;;;;5093663;28;20056;-89
2021/08/17 05:21:23;;;;;;;21.73;11.57;;;12.40;78.60;;;;;;5093506;28;20575;-89
2021/08/17 05:23:50;;;;;;;28.35;12.20;;;12.40;78.60;;;;;;5075067;28;20098;-88
2021/08/17 05:26:17;;;;;;;20.83;11.60;;;12.40;78.70;;;;;;5091347;28;20085;-88
2021/08/17 05:28:44;;;;;;;23.15;12.50;;;12.40;78.70;;;;;;5093616;28;20089;-90
2021/08/17 05:31:11;;;;;;;22.65;12.70;;;12.40;78.70;;;;;;5093194;28;20097;-88
2021/08/17 05:33:38;;;;;;;24.60;11.55;;;12.40;78.80;;;;;;5093476;28;20102;-88
2021/08/17 05:36:05;;;;;;;26.10;11.70;;;12.40;78.90;;;;;;5091040;28;20090;-90
2021/08/17 05:38:32;;;;;;;25.95;12.23;;;12.30;79.00;;;;;;5094232;28;20051;-90
2021/08/17 05:40:59;;;;;;;23.98;11.35;;;12.30;79.20;;;;;;5094960;28;20052;-91
2021/08/17 05:43:26;;;;;;;23.92;11.32;;;12.30;79.30;;;;;;5093127;28;20052;-90
2021/08/17 05:46:04;;;;;;;27.02;11.65;;;12.30;79.40;;;;;;5092805;28;20452;-89
2021/08/17 05:48:33;;;;;;;22.75;11.73;;;12.30;79.50;;;;;;5092195;28;20056;-90
2021/08/17 05:51:00;;;;;;;23.45;11.38;;;12.20;79.60;;;;;;5092126;28;20044;-89
2021/08/17 05:53:27;;;;;;;25.80;13.13;;;12.30;79.60;;;;;;5094589;28;20094;-89
2021/08/17 05:55:54;;;;;;;22.95;11.98;;;12.30;79.60;;;;;;5093082;28;20089;-88
2021/08/17 05:58:20;;;;;;;26.83;12.45;;;12.40;79.70;;;;;;5093575;28;20052;-86
2021/08/17 06:00:47;;;;;;;30.30;12.98;;;12.40;79.80;;;;;;5092445;28;20040;-90
2021/08/17 06:03:14;;;;;;;31.75;12.93;;;12.40;79.90;;;;;;5092289;28;20058;-90
2021/08/17 06:05:42;;;;;;;27.17;11.65;;;12.40;80.10;;;;;;5093480;28;20049;-89
2021/08/17 06:08:09;;;;;;;22.00;11.85;;;12.50;80.40;;;;;;5094622;28;20052;-91
2021/08/17 06:10:37;;;;;;;24.42;12.15;;;12.50;80.50;;;;;;5093092;28;20055;-90
2021/08/17 06:13:04;;;;;;;23.70;12.52;;;12.50;80.50;;;;;;5092988;28;20055;-91
2021/08/17 06:15:31;;;;;;;37.33;14.52;;;12.60;80.70;;;;;;5091260;28;20048;-91
2021/08/17 06:18:03;;;;;;;30.15;13.45;;;12.60;80.70;;;;;;5093174;28;20044;-90
2021/08/17 06:20:31;;;;;;;35.58;14.38;;;12.60;81.00;;;;;;5093684;28;20048;-88
2021/08/17 06:22:58;;;;;;;22.13;11.60;;;12.70;81.10;;;;;;5093900;28;20048;-90
2021/08/17 06:25:26;;;;;;;24.73;12.15;;;12.70;81.10;;;;;;5092488;28;20505;-88
2021/08/17 06:27:52;;;;;;;30.83;12.60;;;12.80;81.20;;;;;;5092502;28;20044;-87
2021/08/17 06:30:21;;;;;;;30.00;13.80;;;12.90;81.20;;;;;;5091395;28;20048;-86
2021/08/17 06:32:55;;;;;;;27.05;12.40;;;12.90;81.30;;;;;;5088918;28;20098;-86
2021/08/17 06:35:23;;;;;;;29.88;12.73;;;13.00;81.40;;;;;;5089624;28;20563;-85
2021/08/17 06:37:50;;;;;;;27.27;12.07;;;13.10;81.40;;;;;;5092198;28;20055;-86
2021/08/17 06:40:18;;;;;;;23.67;11.57;;;13.20;81.70;;;;;;5091462;28;20036;-86
2021/08/17 06:42:45;;;;;;;22.17;10.95;;;13.30;81.80;;;;;;5091047;28;20051;-86
2021/08/17 06:45:13;;;;;;;23.33;10.93;;;13.30;81.80;;;;;;5091865;28;20113;-85
2021/08/17 06:47:55;;;;;;;23.40;11.02;;;13.40;81.80;;;;;;5091725;28;20052;-86
2021/08/17 06:50:41;;;;;;;25.77;10.25;;;13.40;81.80;;;;;;5105278;28;20085;-84
2021/08/17 06:53:08;;;;;;;24.52;10.75;;;13.50;81.80;;;;;;5093700;28;20460;-85
2021/08/17 06:55:35;;;;;;;19.80;9.77;;;13.60;81.80;;;;;;5090259;28;20048;-85
2021/08/17 06:58:02;;;;;;;19.85;9.80;;;13.70;81.80;;;;;;5090781;28;20040;-87
2021/08/17 07:00:29;;;;;;;18.60;8.98;;;13.80;81.80;;;;;;5091526;28;20101;-86
2021/08/17 07:02:56;;;;;;;17.73;8.02;;;13.90;81.70;;;;;;5091135;28;20113;-86
2021/08/17 07:05:36;;;;;;;16.65;8.32;;;13.90;81.60;;;;;;5091805;28;20078;-86
2021/08/17 07:08:04;;;;;;;17.35;8.50;;;14.00;81.50;;;;;;5091736;28;20052;-87
2021/08/17 07:10:32;;;;;;;18.33;8.20;;;14.10;81.50;;;;;;5089190;28;20438;-87
2021/08/17 07:13:18;;;;;;;15.07;7.63;;;14.20;81.50;;;;;;5084516;28;20048;-88
2021/08/17 07:15:47;;;;;;;18.65;7.85;;;14.30;81.50;;;;;;5089934;28;20040;-89
2021/08/17 07:18:14;;;;;;;17.98;7.80;;;14.40;81.40;;;;;;5091240;28;20567;-88
2021/08/17 07:20:42;;;;;;;14.40;7.47;;;14.40;81.20;;;;;;5089554;28;20395;-89
2021/08/17 07:23:09;;;;;;;15.30;6.60;;;14.40;81.10;;;;;;5093265;28;20044;-87
2021/08/17 07:25:36;;;;;;;12.98;7.00;;;14.50;80.90;;;;;;5084797;28;20531;-90
2021/08/17 07:28:04;;;;;;;15.07;6.57;;;14.60;80.90;;;;;;5090599;28;20506;-89
2021/08/17 07:30:32;;;;;;;13.77;6.70;;;14.70;80.80;;;;;;5089983;28;20052;-92
2021/08/17 07:32:59;;;;;;;13.30;5.82;;;14.80;80.70;;;;;;5092540;28;20048;-89
2021/08/17 07:35:27;;;;;;;9.80;5.32;;;14.90;80.60;;;;;;5093632;28;20052;-90
2021/08/17 07:37:54;;;;;;;9.02;5.57;;;14.90;80.30;;;;;;5073714;28;20108;-93
2021/08/17 07:40:22;;;;;;;13.00;5.30;;;15.10;80.20;;;;;;5080523;28;20108;-92
2021/08/17 07:42:49;;;;;;;13.15;5.80;;;15.10;79.80;;;;;;5092558;28;20070;-95
2021/08/17 07:45:17;;;;;;;11.40;5.63;;;15.20;79.60;;;;;;5091972;28;20040;-90
2021/08/17 07:47:44;;;;;;;10.25;5.45;;;15.30;79.50;;;;;;5090843;28;20051;-91
2021/08/17 07:50:12;;;;;;;13.32;5.80;;;15.40;79.30;;;;;;5092613;28;20051;-92
2021/08/17 07:52:40;;;;;;;11.95;6.40;;;15.40;79.20;;;;;;5093374;28;20056;-92
2021/08/17 07:55:10;;;;;;;10.98;5.75;;;15.50;79.10;;;;;;5089774;28;20497;-92
2021/08/17 07:57:37;;;;;;;12.32;6.00;;;15.50;78.90;;;;;;5091672;28;20055;-91
2021/08/17 08:00:07;;;;;;;13.15;5.90;;;15.60;78.40;;;;;;5092028;28;20048;-91
2021/08/17 08:02:34;;;;;;;11.77;5.45;;;15.60;78.10;;;;;;5093811;28;20059;-91
2021/08/17 08:05:01;;;;;;;12.05;5.95;;;15.60;77.90;;;;;;5072167;28;20482;-93
2021/08/17 08:07:29;;;;;;;12.07;5.25;;;15.70;77.60;;;;;;5082405;28;20044;-94
2021/08/17 08:09:56;;;;;;;12.13;4.88;;;15.80;77.90;;;;;;5090299;28;20044;-93
2021/08/17 08:12:22;;;;;;;10.20;4.82;;;15.90;78.20;;;;;;5091555;28;20101;-91
2021/08/17 08:14:50;;;;;;;12.25;4.82;;;16.00;77.80;;;;;;5093082;28;20438;-91
2021/08/17 08:17:17;;;;;;;11.85;5.53;;;16.10;77.40;;;;;;5095079;28;20149;-93
2021/08/17 08:19:44;;;;;;;12.13;5.30;;;16.20;77.00;;;;;;5095598;28;20048;-82
2021/08/17 08:22:13;;;;;;;10.02;4.78;;;16.20;76.70;;;;;;5084098;28;20037;-93
2021/08/17 08:24:39;;;;;;;10.75;4.72;;;16.30;76.60;;;;;;5075461;28;20056;-91
2021/08/17 08:27:06;;;;;;;7.95;4.40;;;16.30;76.50;;;;;;5099853;28;20069;-92
2021/08/17 08:29:33;;;;;;;8.48;4.18;;;16.30;75.70;;;;;;5093670;28;20109;-93
2021/08/17 08:32:00;;;;;;;12.70;4.38;;;16.40;75.70;;;;;;5090298;28;20430;-92
2021/08/17 08:34:27;;;;;;;8.80;3.75;;;16.50;75.90;;;;;;5080658;28;20457;-92
2021/08/17 08:36:54;;;;;;;6.15;3.65;;;16.50;75.70;;;;;;5080191;28;20474;-89
2021/08/17 08:39:23;;;;;;;10.73;3.88;;;16.60;75.20;;;;;;5080341;28;20502;-94
2021/08/17 08:41:54;;;;;;;9.07;4.00;;;16.60;75.00;;;;;;5088617;28;20048;-93
2021/08/17 08:44:21;;;;;;;7.63;3.60;;;16.70;74.80;;;;;;5082897;28;20053;-92
2021/08/17 08:46:50;;;;;;;8.57;4.00;;;16.80;74.70;;;;;;5074288;28;20094;-90
2021/08/17 08:49:18;;;;;;;6.80;3.65;;;16.90;74.60;;;;;;5077215;28;20086;-92
2021/08/17 08:51:45;;;;;;;8.43;4.05;;;16.90;74.30;;;;;;5081012;28;20048;-94
2021/08/17 08:54:12;;;;;;;8.23;4.00;;;17.00;74.10;;;;;;5077302;28;20105;-95
2021/08/17 08:56:39;;;;;;;7.63;4.03;;;17.10;74.30;;;;;;5074601;28;20048;-95
2021/08/17 08:59:06;;;;;;;9.68;4.50;;;17.20;74.30;;;;;;5081060;28;20071;-95
2021/08/17 09:01:33;;;;;;;10.32;3.70;;;17.20;74.20;;;;;;5079538;28;20044;-90
2021/08/17 09:04:00;;;;;;;9.90;4.20;;;17.30;74.00;;;;;;5087014;28;20049;-96
2021/08/17 09:06:30;;;;;;;10.98;3.95;;;17.40;73.20;;;;;;5086628;28;20077;-91
2021/08/17 09:09:15;;;;;;;8.85;3.80;;;17.40;73.10;;;;;;5085840;28;20032;-94
2021/08/17 09:11:46;;;;;;;5.93;3.20;;;17.50;72.90;;;;;;5076653;28;20074;-92
2021/08/17 09:14:19;;;;;;;8.55;3.30;;;17.50;72.60;;;;;;5080341;28;20060;-94
2021/08/17 09:16:49;;;;;;;6.70;3.65;;;17.50;71.40;;;;;;5085897;28;20052;-84
2021/08/17 09:19:23;;;;;;;8.40;3.78;;;17.60;71.30;;;;;;5083521;28;20051;-94
2021/08/17 09:21:50;;;;;;;;;;;17.60;71.30;;;;;;5087845;28;20045;-88
2021/08/17 09:24:21;;;;;;;9.20;3.40;;;17.60;71.20;;;;;;5084493;28;20357;-95
2021/08/17 09:26:52;;;;;;;8.45;3.67;;;17.70;71.30;;;;;;5080927;28;20102;-91
2021/08/17 09:29:40;;;;;;;10.57;3.45;;;17.70;71.40;;;;;;5096072;28;20074;-94
2021/08/17 09:32:21;;;;;;;5.75;3.50;;;17.90;71.00;;;;;;5089853;28;20032;-94
2021/08/17 09:34:53;;;;;;;10.95;4.30;;;17.90;70.80;;;;;;5089519;28;20094;-92
2021/08/17 09:37:24;;;;;;;9.05;3.20;;;17.90;70.50;;;;;;5089192;28;20049;-94
2021/08/17 09:39:54;;;;;;;11.27;3.35;;;17.90;70.10;;;;;;5090708;28;20045;-95
2021/08/17 09:42:29;;;;;;;9.75;3.25;;;17.90;70.20;;;;;;5076631;28;20045;-92
2021/08/17 09:45:15;;;;;;;7.63;3.38;;;18.00;70.00;;;;;;5081590;28;20073;-93
2021/08/17 09:47:54;;;;;;;6.35;3.45;;;18.00;69.70;;;;;;5083133;28;23006;-94
2021/08/17 09:50:28;;;;;;;10.07;4.40;;;18.10;69.80;;;;;;5103247;28;20048;-93
2021/08/17 09:53:24;;;;;;;9.23;3.70;;;18.10;69.80;;;;;;5082727;28;20086;-91
2021/08/17 09:55:56;;;;;;;10.63;4.07;;;18.20;68.30;;;;;;5036026;28;20050;-94
2021/08/17 09:58:30;;;;;;;8.18;4.10;;;18.20;68.50;;;;;;5023435;28;20084;-94
2021/08/17 10:01:03;;;;;;;8.95;3.80;;;18.20;68.70;;;;;;5027198;28;20072;-94
2021/08/17 10:03:31;;;;;;;6.32;3.50;;;18.20;68.90;;;;;;5018694;28;20428;-93
2021/08/17 10:05:59;;;;;;;9.38;3.83;;;18.30;69.10;;;;;;5037773;28;20084;-92
2021/08/17 10:08:31;;;;;;;9.18;4.47;;;18.40;69.20;;;;;;5042556;28;20053;-91
2021/08/17 10:11:00;;;;;;;10.85;4.13;;;18.40;68.90;;;;;;5036767;28;20045;-88
2021/08/17 10:13:29;;;;;;;10.48;4.28;;;18.50;69.00;;;;;;5030346;28;20049;-93
2021/08/17 10:15:55;;;;;;;9.52;4.97;;;18.70;69.60;;;;;;5033740;28;20053;-91
2021/08/17 10:18:26;;;;;;;11.98;5.18;;;18.80;69.80;;;;;;5011337;28;20054;-92
2021/08/17 10:20:56;;;;;;;12.43;5.05;;;19.00;70.00;;;;;;5011814;28;20041;-93
2021/08/17 10:23:23;;;;;;;10.10;4.50;;;19.20;69.40;;;;;;5017614;28;20531;-90
2021/08/17 10:25:52;;;;;;;16.63;6.20;;;19.40;67.50;;;;;;5034747;28;20079;-92
2021/08/17 10:28:29;;;;;;;10.88;5.57;;;19.50;67.00;;;;;;5041313;28;20053;-92
2021/08/17 10:30:57;;;;;;;14.05;5.53;;;19.60;67.00;;;;;;5036555;28;20103;-87
2021/08/17 10:33:52;;;;;;;12.40;5.63;;;19.60;66.10;;;;;;5098843;28;20049;-94
2021/08/17 10:36:37;;;;;;;12.40;5.30;;;19.60;66.00;;;;;;5081793;28;20055;-93
2021/08/17 10:39:26;;;;;;;11.48;5.30;;;19.50;66.40;;;;;;5077030;28;20494;-91
2021/08/17 10:41:54;;;;;;;11.70;5.38;;;19.60;66.70;;;;;;5078404;28;20052;-89
2021/08/17 10:44:32;;;;;;;10.18;5.10;;;19.50;66.60;;;;;;5138552;27;20096;-91
2021/08/17 10:47:02;;;;;;;12.02;5.22;;;19.50;66.50;;;;;;5080365;28;20571;-94
2021/08/17 10:49:46;;;;;;;9.00;4.75;;;19.40;66.20;;;;;;5085545;28;20048;-94
2021/08/17 10:52:29;;;;;;;10.93;4.70;;;19.40;66.60;;;;;;5085656;28;20048;-87
2021/08/17 10:55:28;;;;;;;11.27;5.32;;;19.30;66.70;;;;;;5079838;28;20078;-94
2021/08/17 10:57:57;;;;;;;13.88;4.88;;;19.20;67.00;;;;;;5086064;28;20045;-92
2021/08/17 11:00:48;;;;;;;7.43;4.15;;;19.00;67.30;;;;;;5080158;28;20059;-93
2021/08/17 11:03:39;;;;;;;11.40;4.32;;;18.90;67.60;;;;;;5076390;28;20407;-92
2021/08/17 11:06:07;;;;;;;11.70;5.20;;;18.80;68.00;;;;;;5075828;28;20071;-93
2021/08/17 11:08:37;;;;;;;9.68;4.50;;;18.70;68.10;;;;;;5090689;28;20476;-92
2021/08/17 11:11:21;;;;;;;10.05;4.80;;;18.60;68.40;;;;;;5074909;28;20052;-93
2021/08/17 11:14:14;;;;;;;10.23;4.95;;;18.60;68.60;;;;;;5084456;28;20941;-93
2021/08/17 11:16:49;;;;;;;10.82;5.13;;;18.50;68.80;;;;;;5092164;28;20056;-93
2021/08/17 11:19:18;;;;;;;13.50;5.40;;;18.50;69.00;;;;;;5082796;28;20137;-95
2021/08/17 11:21:48;;;;;;;12.52;4.95;;;18.40;69.30;;;;;;5095228;28;20051;-93
2021/08/17 11:24:18;;;;;;;11.68;5.13;;;18.40;69.40;;;;;;5077048;28;20517;-91
2021/08/17 11:27:04;;;;;;;9.10;5.15;;;18.30;69.50;;;;;;5092199;28;20044;-93
2021/08/17 11:29:47;;;;;;;10.45;5.53;;;18.30;69.70;;;;;;5089118;28;20048;-94
2021/08/17 11:32:31;;;;;;;12.38;5.50;;;18.30;69.80;;;;;;5078361;28;20479;-92
2021/08/17 11:35:09;;;;;;;13.73;4.88;;;18.20;69.80;;;;;;5091956;28;20048;-95
2021/08/17 11:37:38;;;;;;;9.82;4.78;;;18.20;69.90;;;;;;5091496;28;20097;-91
2021/08/17 11:40:07;;;;;;;9.80;4.85;;;18.20;69.90;;;;;;5086482;28;20052;-93
2021/08/17 11:42:36;;;;;;;13.10;5.57;;;18.10;70.10;;;;;;5089187;28;20509;-92
2021/08/17 11:45:07;;;;;;;11.23;5.53;;;18.10;70.30;;;;;;5075228;28;20125;-94
2021/08/17 11:47:34;;;;;;;11.02;5.70;;;18.10;70.50;;;;;;5088755;28;20105;-90
2021/08/17 11:50:04;;;;;;;14.23;5.20;;;18.10;71.10;;;;;;5110084;27;20335;-92
2021/08/17 11:52:50;;;;;;;8.07;4.78;;;18.00;71.30;;;;;;5076781;28;20572;-91
2021/08/17 11:55:18;;;;;;;14.27;5.95;;;17.90;71.70;;;;;;5081613;28;20532;-86
2021/08/17 11:57:50;;;;;;;14.45;6.75;;;17.90;71.90;;;;;;5085561;28;20055;-90
2021/08/17 12:00:20;;;;;;;12.05;6.32;;;17.90;72.30;;;;;;5075488;28;20495;-92
2021/08/17 12:02:52;;;;;;;11.82;6.28;;;17.90;72.80;;;;;;5073403;28;20070;-90
2021/08/17 12:05:24;;;;;;;10.80;6.00;;;17.80;73.10;;;;;;5087768;28;20513;-88
2021/08/17 12:07:53;;;;;;;13.65;6.85;;;17.70;74.00;;;;;;5071784;28;20044;-93
2021/08/17 12:10:24;;;;;;;14.55;6.75;;;17.70;74.40;;;;;;5081357;28;20043;-94
2021/08/17 12:12:54;;;;;;;10.95;6.60;;;17.70;74.80;;;;;;5085877;28;20041;-94
2021/08/17 12:15:54;;;;;;;13.48;6.30;;;17.60;75.00;;;;;;5077716;28;20040;-94
2021/08/17 12:18:26;;;;;;;13.07;6.38;;;17.60;75.10;;;;;;5074473;28;20048;-90
2021/08/17 12:20:53;;;;;;;13.85;6.45;;;17.60;75.20;;;;;;5098073;28;20101;-94
2021/08/17 12:23:58;;;;;;;15.23;6.30;;;17.70;75.50;;;;;;5098864;28;20056;-93
2021/08/17 12:26:30;;;;;;;14.80;5.32;;;17.70;75.50;;;;;;5098315;28;20055;-95
2021/08/17 12:29:08;;;;;;;10.80;4.95;;;17.70;75.50;;;;;;5096952;28;20044;-89
2021/08/17 12:31:38;;;;;;;10.15;4.68;;;17.70;76.00;;;;;;5089358;28;20044;-93
2021/08/17 12:34:05;;;;;;;7.15;3.53;;;17.70;75.70;;;;;;5087128;28;20047;-92
2021/08/17 12:36:41;;;;;;;7.35;2.97;;;17.80;75.70;;;;;;5083101;28;20040;-93
2021/08/17 12:39:25;;;;;;;10.38;3.28;;;17.70;74.80;;;;;;5102230;28;20090;-94
2021/08/17 12:41:54;;;;;;;5.30;2.30;;;17.80;73.50;;;;;;5084967;28;20078;-93
2021/08/17 12:44:40;;;;;;;5.22;2.22;;;17.80;72.60;;;;;;5094138;28;20097;-94
2021/08/17 12:47:23;;;;;;;4.38;2.25;;;17.90;72.60;;;;;;5089619;28;20076;-92